sensor_id;sensor_type;location;lat;lon;timestamp;temperature;humidity
68912;SHT31;55953;51.650;-0.522;2023-08-12T00:01:24;16.93;76.55
68912;SHT31;55953;51.650;-0.522;2023-08-12T00:03:53;16.93;76.56
68912;SHT31;55953;51.650;-0.522;2023-08-12T00:06:21;16.85;76.63
68912;SHT31;55953;51.650;-0.522;2023-08-12T00:08:49;16.80;76.86
68912;SHT31;55953;51.650;-0.522;2023-08-12T00:11:17;16.78;76.84
68912;SHT31;55953;51.650;-0.522;2023-08-12T00:13:45;16.74;76.93
68912;SHT31;55953;51.650;-0.522;2023-08-12T00:16:12;16.68;77.08
68912;SHT31;55953;51.650;-0.522;2023-08-12T00:18:41;16.68;77.05
68912;SHT31;55953;51.650;-0.522;2023-08-12T00:21:09;16.64;77.27
68912;SHT31;55953;51.650;-0.522;2023-08-12T00:23:38;16.58;77.38
68912;SHT31;55953;51.650;-0.522;2023-08-12T00:26:08;16.56;77.55
68912;SHT31;55953;51.650;-0.522;2023-08-12T00:28:36;16.52;77.71
68912;SHT31;55953;51.650;-0.522;2023-08-12T00:31:04;16.50;77.78
68912;SHT31;55953;51.650;-0.522;2023-08-12T00:33:33;16.46;77.85
68912;SHT31;55953;51.650;-0.522;2023-08-12T00:36:01;16.43;77.95
68912;SHT31;55953;51.650;-0.522;2023-08-12T00:38:28;16.39;77.97
68912;SHT31;55953;51.650;-0.522;2023-08-12T00:40:56;16.39;78.01
68912;SHT31;55953;51.650;-0.522;2023-08-12T00:43:25;16.34;78.01
68912;SHT31;55953;51.650;-0.522;2023-08-12T00:45:53;16.32;78.14
68912;SHT31;55953;51.650;-0.522;2023-08-12T00:48:21;16.28;78.24
68912;SHT31;55953;51.650;-0.522;2023-08-12T00:50:50;16.23;78.56
68912;SHT31;55953;51.650;-0.522;2023-08-12T00:53:19;16.19;78.64
68912;SHT31;55953;51.650;-0.522;2023-08-12T00:55:48;16.16;78.72
68912;SHT31;55953;51.650;-0.522;2023-08-12T00:58:16;16.14;78.70
68912;SHT31;55953;51.650;-0.522;2023-08-12T01:00:45;16.11;79.01
68912;SHT31;55953;51.650;-0.522;2023-08-12T01:03:13;16.07;79.04
68912;SHT31;55953;51.650;-0.522;2023-08-12T01:05:41;16.04;79.18
68912;SHT31;55953;51.650;-0.522;2023-08-12T01:08:10;16.00;79.25
68912;SHT31;55953;51.650;-0.522;2023-08-12T01:10:39;15.94;79.46
68912;SHT31;55953;51.650;-0.522;2023-08-12T01:13:25;15.93;79.45
68912;SHT31;55953;51.650;-0.522;2023-08-12T01:16:08;15.91;79.44
68912;SHT31;55953;51.650;-0.522;2023-08-12T01:18:39;15.85;79.65
68912;SHT31;55953;51.650;-0.522;2023-08-12T01:21:10;15.84;79.58
68912;SHT31;55953;51.650;-0.522;2023-08-12T01:23:44;15.79;79.77
68912;SHT31;55953;51.650;-0.522;2023-08-12T01:26:12;15.72;80.06
68912;SHT31;55953;51.650;-0.522;2023-08-12T01:28:40;15.69;80.11
68912;SHT31;55953;51.650;-0.522;2023-08-12T01:31:10;15.66;80.09
68912;SHT31;55953;51.650;-0.522;2023-08-12T01:33:49;15.63;80.17
68912;SHT31;55953;51.650;-0.522;2023-08-12T01:36:25;15.59;80.34
68912;SHT31;55953;51.650;-0.522;2023-08-12T01:38:59;15.56;80.60
68912;SHT31;55953;51.650;-0.522;2023-08-12T01:41:31;15.53;80.75
68912;SHT31;55953;51.650;-0.522;2023-08-12T01:44:01;15.48;81.00
68912;SHT31;55953;51.650;-0.522;2023-08-12T01:46:30;15.48;81.13
68912;SHT31;55953;51.650;-0.522;2023-08-12T01:48:58;15.50;81.28
68912;SHT31;55953;51.650;-0.522;2023-08-12T01:51:28;15.51;81.62
68912;SHT31;55953;51.650;-0.522;2023-08-12T01:53:56;15.50;82.02
68912;SHT31;55953;51.650;-0.522;2023-08-12T01:56:24;15.53;81.93
68912;SHT31;55953;51.650;-0.522;2023-08-12T01:58:52;15.56;81.96
68912;SHT31;55953;51.650;-0.522;2023-08-12T02:01:20;15.58;82.19
68912;SHT31;55953;51.650;-0.522;2023-08-12T02:03:48;15.61;82.17
68912;SHT31;55953;51.650;-0.522;2023-08-12T02:06:16;15.61;82.26
68912;SHT31;55953;51.650;-0.522;2023-08-12T02:08:44;15.65;82.12
68912;SHT31;55953;51.650;-0.522;2023-08-12T02:11:12;15.66;82.07
68912;SHT31;55953;51.650;-0.522;2023-08-12T02:13:40;15.65;82.27
68912;SHT31;55953;51.650;-0.522;2023-08-12T02:16:08;15.64;82.13
68912;SHT31;55953;51.650;-0.522;2023-08-12T02:18:36;15.62;82.23
68912;SHT31;55953;51.650;-0.522;2023-08-12T02:21:03;15.59;82.13
68912;SHT31;55953;51.650;-0.522;2023-08-12T02:23:31;15.57;82.47
68912;SHT31;55953;51.650;-0.522;2023-08-12T02:25:59;15.56;82.33
68912;SHT31;55953;51.650;-0.522;2023-08-12T02:28:28;15.55;82.17
68912;SHT31;55953;51.650;-0.522;2023-08-12T02:30:56;15.56;82.24
68912;SHT31;55953;51.650;-0.522;2023-08-12T02:33:23;15.54;82.07
68912;SHT31;55953;51.650;-0.522;2023-08-12T02:35:52;15.53;82.18
68912;SHT31;55953;51.650;-0.522;2023-08-12T02:38:22;15.52;82.14
68912;SHT31;55953;51.650;-0.522;2023-08-12T02:40:50;15.52;82.12
68912;SHT31;55953;51.650;-0.522;2023-08-12T02:43:18;15.49;82.12
68912;SHT31;55953;51.650;-0.522;2023-08-12T02:45:46;15.50;82.03
68912;SHT31;55953;51.650;-0.522;2023-08-12T02:48:14;15.48;82.07
68912;SHT31;55953;51.650;-0.522;2023-08-12T02:50:42;15.47;82.14
68912;SHT31;55953;51.650;-0.522;2023-08-12T02:53:10;15.49;82.09
68912;SHT31;55953;51.650;-0.522;2023-08-12T02:55:38;15.52;82.10
68912;SHT31;55953;51.650;-0.522;2023-08-12T02:58:06;15.56;81.87
68912;SHT31;55953;51.650;-0.522;2023-08-12T03:00:34;15.59;81.75
68912;SHT31;55953;51.650;-0.522;2023-08-12T03:03:02;15.60;81.64
68912;SHT31;55953;51.650;-0.522;2023-08-12T03:05:31;15.60;81.53
68912;SHT31;55953;51.650;-0.522;2023-08-12T03:07:59;15.60;81.60
68912;SHT31;55953;51.650;-0.522;2023-08-12T03:10:29;15.60;81.58
68912;SHT31;55953;51.650;-0.522;2023-08-12T03:12:57;15.58;81.57
68912;SHT31;55953;51.650;-0.522;2023-08-12T03:15:26;15.54;81.78
68912;SHT31;55953;51.650;-0.522;2023-08-12T03:17:55;15.53;81.73
68912;SHT31;55953;51.650;-0.522;2023-08-12T03:20:24;15.51;81.63
68912;SHT31;55953;51.650;-0.522;2023-08-12T03:22:52;15.47;81.69
68912;SHT31;55953;51.650;-0.522;2023-08-12T03:25:22;15.44;81.69
68912;SHT31;55953;51.650;-0.522;2023-08-12T03:27:50;15.44;81.73
68912;SHT31;55953;51.650;-0.522;2023-08-12T03:30:19;15.44;81.66
68912;SHT31;55953;51.650;-0.522;2023-08-12T03:32:48;15.44;81.66
68912;SHT31;55953;51.650;-0.522;2023-08-12T03:35:16;15.44;81.70
68912;SHT31;55953;51.650;-0.522;2023-08-12T03:37:46;15.43;81.71
68912;SHT31;55953;51.650;-0.522;2023-08-12T03:40:14;15.44;81.68
68912;SHT31;55953;51.650;-0.522;2023-08-12T03:42:42;15.47;81.60
68912;SHT31;55953;51.650;-0.522;2023-08-12T03:45:10;15.47;81.62
68912;SHT31;55953;51.650;-0.522;2023-08-12T03:47:38;15.49;81.64
68912;SHT31;55953;51.650;-0.522;2023-08-12T03:50:06;15.49;81.71
68912;SHT31;55953;51.650;-0.522;2023-08-12T03:52:34;15.49;81.58
68912;SHT31;55953;51.650;-0.522;2023-08-12T03:55:02;15.49;81.60
68912;SHT31;55953;51.650;-0.522;2023-08-12T03:57:32;15.51;81.48
68912;SHT31;55953;51.650;-0.522;2023-08-12T03:59:59;15.52;81.40
68912;SHT31;55953;51.650;-0.522;2023-08-12T04:02:28;15.53;81.28
68912;SHT31;55953;51.650;-0.522;2023-08-12T04:04:56;15.56;81.34
68912;SHT31;55953;51.650;-0.522;2023-08-12T04:07:25;15.59;81.38
68912;SHT31;55953;51.650;-0.522;2023-08-12T04:09:54;15.62;81.29
68912;SHT31;55953;51.650;-0.522;2023-08-12T04:12:22;15.68;81.37
68912;SHT31;55953;51.650;-0.522;2023-08-12T04:14:49;15.72;81.27
68912;SHT31;55953;51.650;-0.522;2023-08-12T04:17:17;15.74;81.22
68912;SHT31;55953;51.650;-0.522;2023-08-12T04:19:45;15.77;81.19
68912;SHT31;55953;51.650;-0.522;2023-08-12T04:22:14;15.81;81.09
68912;SHT31;55953;51.650;-0.522;2023-08-12T04:24:42;15.84;81.02
68912;SHT31;55953;51.650;-0.522;2023-08-12T04:27:10;15.87;81.00
68912;SHT31;55953;51.650;-0.522;2023-08-12T04:29:39;15.91;80.95
68912;SHT31;55953;51.650;-0.522;2023-08-12T04:32:07;15.94;80.83
68912;SHT31;55953;51.650;-0.522;2023-08-12T04:34:35;15.96;80.88
68912;SHT31;55953;51.650;-0.522;2023-08-12T04:37:03;15.97;80.79
68912;SHT31;55953;51.650;-0.522;2023-08-12T04:39:31;15.97;80.96
68912;SHT31;55953;51.650;-0.522;2023-08-12T04:42:00;16.00;80.85
68912;SHT31;55953;51.650;-0.522;2023-08-12T04:44:28;16.04;80.74
68912;SHT31;55953;51.650;-0.522;2023-08-12T04:46:56;16.06;80.65
68912;SHT31;55953;51.650;-0.522;2023-08-12T04:49:24;16.03;80.66
68912;SHT31;55953;51.650;-0.522;2023-08-12T04:51:53;16.02;80.59
68912;SHT31;55953;51.650;-0.522;2023-08-12T04:54:21;16.01;80.49
68912;SHT31;55953;51.650;-0.522;2023-08-12T04:56:49;15.98;80.43
68912;SHT31;55953;51.650;-0.522;2023-08-12T04:59:17;15.95;80.45
68912;SHT31;55953;51.650;-0.522;2023-08-12T05:01:45;15.91;80.47
68912;SHT31;55953;51.650;-0.522;2023-08-12T05:04:31;15.85;80.48
68912;SHT31;55953;51.650;-0.522;2023-08-12T05:06:59;15.80;80.55
68912;SHT31;55953;51.650;-0.522;2023-08-12T05:09:27;15.78;80.61
68912;SHT31;55953;51.650;-0.522;2023-08-12T05:11:54;15.76;80.62
68912;SHT31;55953;51.650;-0.522;2023-08-12T05:14:22;15.74;80.67
68912;SHT31;55953;51.650;-0.522;2023-08-12T05:16:50;15.71;80.67
68912;SHT31;55953;51.650;-0.522;2023-08-12T05:19:18;15.72;80.78
68912;SHT31;55953;51.650;-0.522;2023-08-12T05:21:46;15.75;80.74
68912;SHT31;55953;51.650;-0.522;2023-08-12T05:24:14;15.81;80.69
68912;SHT31;55953;51.650;-0.522;2023-08-12T05:26:42;15.86;80.86
68912;SHT31;55953;51.650;-0.522;2023-08-12T05:29:10;15.97;80.76
68912;SHT31;55953;51.650;-0.522;2023-08-12T05:31:39;16.04;80.61
68912;SHT31;55953;51.650;-0.522;2023-08-12T05:34:06;16.09;80.59
68912;SHT31;55953;51.650;-0.522;2023-08-12T05:36:35;16.13;80.48
68912;SHT31;55953;51.650;-0.522;2023-08-12T05:39:03;16.24;80.37
68912;SHT31;55953;51.650;-0.522;2023-08-12T05:41:31;16.33;80.24
68912;SHT31;55953;51.650;-0.522;2023-08-12T05:43:59;16.36;80.16
68912;SHT31;55953;51.650;-0.522;2023-08-12T05:46:27;16.39;80.08
68912;SHT31;55953;51.650;-0.522;2023-08-12T05:48:55;16.44;79.98
68912;SHT31;55953;51.650;-0.522;2023-08-12T05:51:23;16.44;79.90
68912;SHT31;55953;51.650;-0.522;2023-08-12T05:53:51;16.47;79.85
68912;SHT31;55953;51.650;-0.522;2023-08-12T05:56:19;16.47;79.76
68912;SHT31;55953;51.650;-0.522;2023-08-12T05:58:46;16.48;79.81
68912;SHT31;55953;51.650;-0.522;2023-08-12T06:01:14;16.46;79.80
68912;SHT31;55953;51.650;-0.522;2023-08-12T06:03:42;16.42;80.00
68912;SHT31;55953;51.650;-0.522;2023-08-12T06:06:10;16.41;80.02
68912;SHT31;55953;51.650;-0.522;2023-08-12T06:08:38;16.40;80.10
68912;SHT31;55953;51.650;-0.522;2023-08-12T06:11:06;16.41;80.09
68912;SHT31;55953;51.650;-0.522;2023-08-12T06:13:33;16.45;80.15
68912;SHT31;55953;51.650;-0.522;2023-08-12T06:16:01;16.51;80.01
68912;SHT31;55953;51.650;-0.522;2023-08-12T06:18:29;16.58;80.07
68912;SHT31;55953;51.650;-0.522;2023-08-12T06:20:57;16.72;80.09
68912;SHT31;55953;51.650;-0.522;2023-08-12T06:23:25;16.83;79.87
68912;SHT31;55953;51.650;-0.522;2023-08-12T06:25:54;16.95;79.72
68912;SHT31;55953;51.650;-0.522;2023-08-12T06:28:22;17.06;79.54
68912;SHT31;55953;51.650;-0.522;2023-08-12T06:30:50;17.15;79.48
68912;SHT31;55953;51.650;-0.522;2023-08-12T06:33:19;17.27;79.24
68912;SHT31;55953;51.650;-0.522;2023-08-12T06:35:47;17.36;79.08
68912;SHT31;55953;51.650;-0.522;2023-08-12T06:38:17;17.46;78.94
68912;SHT31;55953;51.650;-0.522;2023-08-12T06:40:46;17.56;78.67
68912;SHT31;55953;51.650;-0.522;2023-08-12T06:43:14;17.61;78.29
68912;SHT31;55953;51.650;-0.522;2023-08-12T06:45:42;17.68;78.34
68912;SHT31;55953;51.650;-0.522;2023-08-12T06:48:10;17.72;78.18
68912;SHT31;55953;51.650;-0.522;2023-08-12T06:50:38;17.79;78.24
68912;SHT31;55953;51.650;-0.522;2023-08-12T06:53:06;17.85;78.01
68912;SHT31;55953;51.650;-0.522;2023-08-12T06:55:34;17.89;77.91
68912;SHT31;55953;51.650;-0.522;2023-08-12T06:58:02;17.95;77.78
68912;SHT31;55953;51.650;-0.522;2023-08-12T07:00:30;18.00;77.85
68912;SHT31;55953;51.650;-0.522;2023-08-12T07:02:58;18.06;77.76
68912;SHT31;55953;51.650;-0.522;2023-08-12T07:05:26;18.14;77.50
68912;SHT31;55953;51.650;-0.522;2023-08-12T07:07:54;18.17;77.23
68912;SHT31;55953;51.650;-0.522;2023-08-12T07:10:22;18.21;77.11
68912;SHT31;55953;51.650;-0.522;2023-08-12T07:12:50;18.26;77.13
68912;SHT31;55953;51.650;-0.522;2023-08-12T07:15:18;18.31;76.95
68912;SHT31;55953;51.650;-0.522;2023-08-12T07:17:46;18.36;76.89
68912;SHT31;55953;51.650;-0.522;2023-08-12T07:20:14;18.42;76.46
68912;SHT31;55953;51.650;-0.522;2023-08-12T07:22:42;18.51;76.37
68912;SHT31;55953;51.650;-0.522;2023-08-12T07:25:10;18.60;76.23
68912;SHT31;55953;51.650;-0.522;2023-08-12T07:27:38;18.67;76.02
68912;SHT31;55953;51.650;-0.522;2023-08-12T07:30:06;18.70;76.02
68912;SHT31;55953;51.650;-0.522;2023-08-12T07:32:38;18.74;75.87
68912;SHT31;55953;51.650;-0.522;2023-08-12T07:35:07;18.79;75.62
68912;SHT31;55953;51.650;-0.522;2023-08-12T07:37:35;18.87;75.53
68912;SHT31;55953;51.650;-0.522;2023-08-12T07:40:03;18.98;75.42
68912;SHT31;55953;51.650;-0.522;2023-08-12T07:42:32;19.00;74.79
68912;SHT31;55953;51.650;-0.522;2023-08-12T07:45:00;19.03;75.05
68912;SHT31;55953;51.650;-0.522;2023-08-12T07:47:28;19.14;75.11
68912;SHT31;55953;51.650;-0.522;2023-08-12T07:49:56;19.32;74.75
68912;SHT31;55953;51.650;-0.522;2023-08-12T07:52:24;19.42;74.23
68912;SHT31;55953;51.650;-0.522;2023-08-12T07:54:51;19.45;73.93
68912;SHT31;55953;51.650;-0.522;2023-08-12T07:57:19;19.56;73.96
68912;SHT31;55953;51.650;-0.522;2023-08-12T07:59:51;19.63;73.52
68912;SHT31;55953;51.650;-0.522;2023-08-12T08:02:19;19.63;72.37
68912;SHT31;55953;51.650;-0.522;2023-08-12T08:04:47;19.63;72.12
68912;SHT31;55953;51.650;-0.522;2023-08-12T08:07:16;19.67;71.76
68912;SHT31;55953;51.650;-0.522;2023-08-12T08:09:45;19.73;71.42
68912;SHT31;55953;51.650;-0.522;2023-08-12T08:12:12;19.80;71.58
68912;SHT31;55953;51.650;-0.522;2023-08-12T08:14:41;19.90;71.46
68912;SHT31;55953;51.650;-0.522;2023-08-12T08:17:09;20.00;70.81
68912;SHT31;55953;51.650;-0.522;2023-08-12T08:19:37;20.12;70.94
68912;SHT31;55953;51.650;-0.522;2023-08-12T08:22:05;20.24;70.28
68912;SHT31;55953;51.650;-0.522;2023-08-12T08:24:33;20.28;69.78
68912;SHT31;55953;51.650;-0.522;2023-08-12T08:27:01;20.34;70.24
68912;SHT31;55953;51.650;-0.522;2023-08-12T08:29:28;20.42;68.75
68912;SHT31;55953;51.650;-0.522;2023-08-12T08:31:56;20.47;68.24
68912;SHT31;55953;51.650;-0.522;2023-08-12T08:34:24;20.52;67.20
68912;SHT31;55953;51.650;-0.522;2023-08-12T08:36:52;20.45;67.01
68912;SHT31;55953;51.650;-0.522;2023-08-12T08:39:20;20.47;67.07
68912;SHT31;55953;51.650;-0.522;2023-08-12T08:41:48;20.50;67.31
68912;SHT31;55953;51.650;-0.522;2023-08-12T08:44:16;20.59;67.35
68912;SHT31;55953;51.650;-0.522;2023-08-12T08:46:51;20.59;66.70
68912;SHT31;55953;51.650;-0.522;2023-08-12T08:49:23;20.60;66.56
68912;SHT31;55953;51.650;-0.522;2023-08-12T08:51:52;20.61;66.76
68912;SHT31;55953;51.650;-0.522;2023-08-12T08:54:20;20.82;67.24
68912;SHT31;55953;51.650;-0.522;2023-08-12T08:56:49;20.97;65.73
68912;SHT31;55953;51.650;-0.522;2023-08-12T08:59:27;20.98;65.47
68912;SHT31;55953;51.650;-0.522;2023-08-12T09:01:55;21.00;65.44
68912;SHT31;55953;51.650;-0.522;2023-08-12T09:04:26;21.00;65.23
68912;SHT31;55953;51.650;-0.522;2023-08-12T09:06:56;20.95;65.25
68912;SHT31;55953;51.650;-0.522;2023-08-12T09:09:24;20.98;65.41
68912;SHT31;55953;51.650;-0.522;2023-08-12T09:11:53;20.98;65.01
68912;SHT31;55953;51.650;-0.522;2023-08-12T09:14:22;20.96;64.54
68912;SHT31;55953;51.650;-0.522;2023-08-12T09:16:51;20.99;64.86
68912;SHT31;55953;51.650;-0.522;2023-08-12T09:19:18;21.10;64.88
68912;SHT31;55953;51.650;-0.522;2023-08-12T09:21:53;21.28;64.89
68912;SHT31;55953;51.650;-0.522;2023-08-12T09:24:25;21.45;64.59
68912;SHT31;55953;51.650;-0.522;2023-08-12T09:26:54;21.64;64.26
68912;SHT31;55953;51.650;-0.522;2023-08-12T09:29:31;21.67;63.28
68912;SHT31;55953;51.650;-0.522;2023-08-12T09:32:05;21.59;62.48
68912;SHT31;55953;51.650;-0.522;2023-08-12T09:34:47;21.58;62.14
68912;SHT31;55953;51.650;-0.522;2023-08-12T09:37:17;21.59;62.42
68912;SHT31;55953;51.650;-0.522;2023-08-12T09:39:47;21.49;62.86
68912;SHT31;55953;51.650;-0.522;2023-08-12T09:42:16;21.32;63.36
68912;SHT31;55953;51.650;-0.522;2023-08-12T09:44:45;21.10;63.90
68912;SHT31;55953;51.650;-0.522;2023-08-12T09:47:13;20.85;64.99
68912;SHT31;55953;51.650;-0.522;2023-08-12T09:49:42;20.65;67.13
68912;SHT31;55953;51.650;-0.522;2023-08-12T09:52:10;20.59;68.35
68912;SHT31;55953;51.650;-0.522;2023-08-12T09:54:38;20.62;68.86
68912;SHT31;55953;51.650;-0.522;2023-08-12T09:57:06;20.76;68.66
68912;SHT31;55953;51.650;-0.522;2023-08-12T09:59:38;20.89;68.69
68912;SHT31;55953;51.650;-0.522;2023-08-12T10:02:08;20.96;68.24
68912;SHT31;55953;51.650;-0.522;2023-08-12T10:04:46;20.85;67.63
68912;SHT31;55953;51.650;-0.522;2023-08-12T10:07:18;20.58;68.08
68912;SHT31;55953;51.650;-0.522;2023-08-12T10:09:49;20.28;69.37
68912;SHT31;55953;51.650;-0.522;2023-08-12T10:12:17;20.09;70.30
68912;SHT31;55953;51.650;-0.522;2023-08-12T10:14:46;19.89;70.83
68912;SHT31;55953;51.650;-0.522;2023-08-12T10:17:15;19.76;71.40
68912;SHT31;55953;51.650;-0.522;2023-08-12T10:20:03;19.69;72.49
68912;SHT31;55953;51.650;-0.522;2023-08-12T10:22:32;19.73;73.18
68912;SHT31;55953;51.650;-0.522;2023-08-12T10:25:02;19.70;73.42
68912;SHT31;55953;51.650;-0.522;2023-08-12T10:27:31;19.76;73.74
68912;SHT31;55953;51.650;-0.522;2023-08-12T10:29:59;19.85;73.54
68912;SHT31;55953;51.650;-0.522;2023-08-12T10:32:35;19.76;73.74
68912;SHT31;55953;51.650;-0.522;2023-08-12T10:35:03;19.80;74.35
68912;SHT31;55953;51.650;-0.522;2023-08-12T10:37:33;19.93;74.09
68912;SHT31;55953;51.650;-0.522;2023-08-12T10:40:03;20.06;74.12
68912;SHT31;55953;51.650;-0.522;2023-08-12T10:45:17;20.31;74.79
68912;SHT31;55953;51.650;-0.522;2023-08-12T10:47:52;20.47;73.94
68912;SHT31;55953;51.650;-0.522;2023-08-12T10:50:47;20.54;73.53
68912;SHT31;55953;51.650;-0.522;2023-08-12T10:53:31;20.77;73.03
68912;SHT31;55953;51.650;-0.522;2023-08-12T10:56:05;21.21;73.10
68912;SHT31;55953;51.650;-0.522;2023-08-12T10:58:45;21.54;71.97
68912;SHT31;55953;51.650;-0.522;2023-08-12T11:01:17;21.77;71.83
68912;SHT31;55953;51.650;-0.522;2023-08-12T11:03:47;22.03;71.13
68912;SHT31;55953;51.650;-0.522;2023-08-12T11:06:16;22.28;70.49
68912;SHT31;55953;51.650;-0.522;2023-08-12T11:08:47;22.19;69.22
68912;SHT31;55953;51.650;-0.522;2023-08-12T11:11:21;21.93;69.47
68912;SHT31;55953;51.650;-0.522;2023-08-12T11:13:54;21.64;69.85
68912;SHT31;55953;51.650;-0.522;2023-08-12T11:16:35;21.37;70.60
68912;SHT31;55953;51.650;-0.522;2023-08-12T11:19:04;21.09;70.83
68912;SHT31;55953;51.650;-0.522;2023-08-12T11:21:35;20.72;72.16
68912;SHT31;55953;51.650;-0.522;2023-08-12T11:24:04;20.31;73.41
68912;SHT31;55953;51.650;-0.522;2023-08-12T11:26:32;20.03;74.71
68912;SHT31;55953;51.650;-0.522;2023-08-12T11:29:00;19.88;74.83
68912;SHT31;55953;51.650;-0.522;2023-08-12T11:31:28;19.96;75.18
68912;SHT31;55953;51.650;-0.522;2023-08-12T11:33:56;20.07;75.47
68912;SHT31;55953;51.650;-0.522;2023-08-12T11:36:24;20.15;75.64
68912;SHT31;55953;51.650;-0.522;2023-08-12T11:38:51;20.24;76.12
68912;SHT31;55953;51.650;-0.522;2023-08-12T11:41:22;20.33;75.67
68912;SHT31;55953;51.650;-0.522;2023-08-12T11:43:50;20.29;75.24
68912;SHT31;55953;51.650;-0.522;2023-08-12T11:46:18;20.24;76.07
68912;SHT31;55953;51.650;-0.522;2023-08-12T11:48:46;20.26;76.18
68912;SHT31;55953;51.650;-0.522;2023-08-12T11:51:17;20.28;75.71
68912;SHT31;55953;51.650;-0.522;2023-08-12T11:53:45;20.36;76.54
68912;SHT31;55953;51.650;-0.522;2023-08-12T11:56:13;20.43;75.96
68912;SHT31;55953;51.650;-0.522;2023-08-12T11:58:42;20.48;74.88
68912;SHT31;55953;51.650;-0.522;2023-08-12T12:01:20;20.48;74.47
68912;SHT31;55953;51.650;-0.522;2023-08-12T12:03:51;20.60;75.04
68912;SHT31;55953;51.650;-0.522;2023-08-12T12:06:33;20.74;74.57
68912;SHT31;55953;51.650;-0.522;2023-08-12T12:09:08;20.88;74.31
68912;SHT31;55953;51.650;-0.522;2023-08-12T12:11:37;21.00;74.00
68912;SHT31;55953;51.650;-0.522;2023-08-12T12:14:06;21.14;73.99
68912;SHT31;55953;51.650;-0.522;2023-08-12T12:16:43;21.41;73.91
68912;SHT31;55953;51.650;-0.522;2023-08-12T12:19:16;21.63;72.73
68912;SHT31;55953;51.650;-0.522;2023-08-12T12:21:49;21.69;71.81
68912;SHT31;55953;51.650;-0.522;2023-08-12T12:24:19;21.67;71.46
68912;SHT31;55953;51.650;-0.522;2023-08-12T12:26:49;21.81;71.12
68912;SHT31;55953;51.650;-0.522;2023-08-12T12:29:17;21.98;70.17
68912;SHT31;55953;51.650;-0.522;2023-08-12T12:31:44;22.12;70.50
68912;SHT31;55953;51.650;-0.522;2023-08-12T12:34:12;22.27;69.42
68912;SHT31;55953;51.650;-0.522;2023-08-12T12:36:42;22.43;68.86
68912;SHT31;55953;51.650;-0.522;2023-08-12T12:39:10;22.63;67.97
68912;SHT31;55953;51.650;-0.522;2023-08-12T12:41:37;22.84;67.48
68912;SHT31;55953;51.650;-0.522;2023-08-12T12:44:05;22.81;66.82
68912;SHT31;55953;51.650;-0.522;2023-08-12T12:46:33;22.83;66.83
68912;SHT31;55953;51.650;-0.522;2023-08-12T12:49:02;23.00;67.07
68912;SHT31;55953;51.650;-0.522;2023-08-12T12:51:30;23.09;65.99
68912;SHT31;55953;51.650;-0.522;2023-08-12T12:53:58;23.09;65.30
68912;SHT31;55953;51.650;-0.522;2023-08-12T12:56:26;23.14;63.75
68912;SHT31;55953;51.650;-0.522;2023-08-12T12:58:54;23.01;62.19
68912;SHT31;55953;51.650;-0.522;2023-08-12T13:01:22;23.01;62.50
68912;SHT31;55953;51.650;-0.522;2023-08-12T13:03:49;23.20;62.25
68912;SHT31;55953;51.650;-0.522;2023-08-12T13:06:17;23.20;60.77
68912;SHT31;55953;51.650;-0.522;2023-08-12T13:08:45;22.99;61.86
68912;SHT31;55953;51.650;-0.522;2023-08-12T13:11:13;22.87;62.28
68912;SHT31;55953;51.650;-0.522;2023-08-12T13:13:41;22.72;62.38
68912;SHT31;55953;51.650;-0.522;2023-08-12T13:16:09;22.69;62.52
68912;SHT31;55953;51.650;-0.522;2023-08-12T13:18:37;22.79;62.73
68912;SHT31;55953;51.650;-0.522;2023-08-12T13:21:05;22.96;62.16
68912;SHT31;55953;51.650;-0.522;2023-08-12T13:23:32;23.05;61.84
68912;SHT31;55953;51.650;-0.522;2023-08-12T13:26:00;22.96;61.74
68912;SHT31;55953;51.650;-0.522;2023-08-12T13:28:28;22.85;62.46
68912;SHT31;55953;51.650;-0.522;2023-08-12T13:30:56;22.84;62.37
68912;SHT31;55953;51.650;-0.522;2023-08-12T13:33:24;22.73;62.26
68912;SHT31;55953;51.650;-0.522;2023-08-12T13:35:52;22.68;62.48
68912;SHT31;55953;51.650;-0.522;2023-08-12T13:38:20;22.66;62.52
68912;SHT31;55953;51.650;-0.522;2023-08-12T13:40:48;22.59;62.27
68912;SHT31;55953;51.650;-0.522;2023-08-12T13:43:16;22.63;62.69
68912;SHT31;55953;51.650;-0.522;2023-08-12T13:45:44;22.75;63.32
68912;SHT31;55953;51.650;-0.522;2023-08-12T13:48:12;22.82;62.87
68912;SHT31;55953;51.650;-0.522;2023-08-12T13:50:40;22.85;62.60
68912;SHT31;55953;51.650;-0.522;2023-08-12T13:53:08;22.88;62.33
68912;SHT31;55953;51.650;-0.522;2023-08-12T13:55:36;22.92;62.21
68912;SHT31;55953;51.650;-0.522;2023-08-12T13:58:04;23.02;61.54
68912;SHT31;55953;51.650;-0.522;2023-08-12T14:00:32;23.09;61.51
68912;SHT31;55953;51.650;-0.522;2023-08-12T14:03:00;23.19;61.60
68912;SHT31;55953;51.650;-0.522;2023-08-12T14:05:28;23.29;61.72
68912;SHT31;55953;51.650;-0.522;2023-08-12T14:07:57;23.35;61.93
68912;SHT31;55953;51.650;-0.522;2023-08-12T14:10:24;23.45;60.70
68912;SHT31;55953;51.650;-0.522;2023-08-12T14:12:53;23.59;61.04
68912;SHT31;55953;51.650;-0.522;2023-08-12T14:15:24;23.66;61.15
68912;SHT31;55953;51.650;-0.522;2023-08-12T14:17:51;23.62;61.20
68912;SHT31;55953;51.650;-0.522;2023-08-12T14:20:20;23.54;61.47
68912;SHT31;55953;51.650;-0.522;2023-08-12T14:22:47;23.55;61.75
68912;SHT31;55953;51.650;-0.522;2023-08-12T14:25:15;23.57;61.67
68912;SHT31;55953;51.650;-0.522;2023-08-12T14:27:43;23.67;61.75
68912;SHT31;55953;51.650;-0.522;2023-08-12T14:30:11;23.88;61.66
68912;SHT31;55953;51.650;-0.522;2023-08-12T14:32:40;24.02;61.09
68912;SHT31;55953;51.650;-0.522;2023-08-12T14:35:08;23.99;60.61
68912;SHT31;55953;51.650;-0.522;2023-08-12T14:37:37;24.02;61.16
68912;SHT31;55953;51.650;-0.522;2023-08-12T14:40:05;24.13;61.02
68912;SHT31;55953;51.650;-0.522;2023-08-12T14:42:35;24.20;60.41
68912;SHT31;55953;51.650;-0.522;2023-08-12T14:45:03;24.03;60.15
68912;SHT31;55953;51.650;-0.522;2023-08-12T14:47:32;23.83;60.79
68912;SHT31;55953;51.650;-0.522;2023-08-12T14:50:00;23.59;60.57
68912;SHT31;55953;51.650;-0.522;2023-08-12T14:52:28;23.31;61.28
68912;SHT31;55953;51.650;-0.522;2023-08-12T14:54:56;23.09;62.42
68912;SHT31;55953;51.650;-0.522;2023-08-12T14:57:24;22.90;62.22
68912;SHT31;55953;51.650;-0.522;2023-08-12T14:59:52;22.67;62.55
68912;SHT31;55953;51.650;-0.522;2023-08-12T15:02:20;22.48;62.64
68912;SHT31;55953;51.650;-0.522;2023-08-12T15:04:51;22.26;62.21
68912;SHT31;55953;51.650;-0.522;2023-08-12T15:07:20;22.11;62.73
68912;SHT31;55953;51.650;-0.522;2023-08-12T15:09:49;22.02;63.39
68912;SHT31;55953;51.650;-0.522;2023-08-12T15:12:20;22.05;63.79
68912;SHT31;55953;51.650;-0.522;2023-08-12T15:14:48;22.19;64.01
68912;SHT31;55953;51.650;-0.522;2023-08-12T15:17:15;22.39;63.78
68912;SHT31;55953;51.650;-0.522;2023-08-12T15:19:44;22.46;63.06
68912;SHT31;55953;51.650;-0.522;2023-08-12T15:22:11;22.43;63.07
68912;SHT31;55953;51.650;-0.522;2023-08-12T15:24:39;22.32;63.24
68912;SHT31;55953;51.650;-0.522;2023-08-12T15:27:07;22.21;63.59
68912;SHT31;55953;51.650;-0.522;2023-08-12T15:29:36;22.13;63.92